createdAt,value
2019-03-31T00:01:23.278Z,11.95
2019-03-31T00:03:51.516Z,11.15
2019-03-31T00:06:19.746Z,12.82
2019-03-31T00:08:48.013Z,13.32
2019-03-31T00:11:16.234Z,14.40
2019-03-31T00:13:44.748Z,14.38
2019-03-31T00:16:12.999Z,15.53
2019-03-31T00:18:41.217Z,15.28
2019-03-31T00:21:09.467Z,13.83
2019-03-31T00:23:37.737Z,13.25
2019-03-31T00:26:05.980Z,12.63
2019-03-31T00:28:34.194Z,12.93
2019-03-31T00:31:02.460Z,12.03
2019-03-31T00:33:30.679Z,13.25
2019-03-31T00:35:58.909Z,12.10
2019-03-31T00:38:27.154Z,13.10
2019-03-31T00:40:55.381Z,12.65
2019-03-31T00:43:23.608Z,13.28
2019-03-31T00:45:51.875Z,12.80
2019-03-31T00:48:20.095Z,13.18
2019-03-31T00:50:48.338Z,12.90
2019-03-31T00:53:16.589Z,12.35
2019-03-31T00:55:44.807Z,12.88
2019-03-31T00:58:13.032Z,15.35
2019-03-31T01:00:46.182Z,14.70
2019-03-31T01:03:14.720Z,13.48
2019-03-31T01:05:43.008Z,15.25
2019-03-31T01:08:11.787Z,14.25
2019-03-31T01:10:40.465Z,13.22
2019-03-31T01:13:08.718Z,13.95
2019-03-31T01:15:37.023Z,13.83
2019-03-31T01:18:05.654Z,12.37
2019-03-31T01:20:33.881Z,12.47
2019-03-31T01:23:02.099Z,12.78
2019-03-31T01:25:30.355Z,13.22
2019-03-31T01:27:58.575Z,12.43
2019-03-31T01:30:26.900Z,13.28
2019-03-31T01:32:55.406Z,13.72
2019-03-31T01:35:23.625Z,13.53
2019-03-31T01:37:51.889Z,12.73
2019-03-31T01:40:20.116Z,13.25
2019-03-31T01:42:48.354Z,13.03
2019-03-31T01:45:16.608Z,13.50
2019-03-31T01:47:44.837Z,13.18
2019-03-31T01:50:15.030Z,14.07
2019-03-31T01:52:43.270Z,15.32
2019-03-31T01:55:11.504Z,13.90
2019-03-31T01:57:39.737Z,14.93
2019-03-31T02:00:24.624Z,15.23
2019-03-31T02:02:52.852Z,13.72
2019-03-31T02:05:21.102Z,14.70
2019-03-31T02:07:49.323Z,14.38
2019-03-31T02:10:17.552Z,13.93
2019-03-31T02:12:45.804Z,13.25
2019-03-31T02:15:14.022Z,13.78
2019-03-31T02:17:42.285Z,13.22
2019-03-31T02:20:10.525Z,13.88
2019-03-31T02:22:38.762Z,13.08
2019-03-31T02:25:07.016Z,13.85
2019-03-31T02:27:35.251Z,12.58
2019-03-31T02:30:04.018Z,13.10
2019-03-31T02:32:32.337Z,14.07
2019-03-31T02:35:00.589Z,13.98
2019-03-31T02:37:28.832Z,13.22
2019-03-31T02:39:57.058Z,12.98
2019-03-31T02:42:25.281Z,14.35
2019-03-31T02:44:53.540Z,13.68
2019-03-31T02:47:21.871Z,13.98
2019-03-31T02:49:50.109Z,12.93
2019-03-31T02:52:18.324Z,13.98
2019-03-31T02:54:46.629Z,14.50
2019-03-31T02:57:14.906Z,12.80
2019-03-31T02:59:43.151Z,13.62
2019-03-31T03:02:11.810Z,12.90
2019-03-31T03:04:40.077Z,13.70
2019-03-31T03:07:08.301Z,13.20
2019-03-31T03:09:36.529Z,13.00
2019-03-31T03:12:04.785Z,12.80
2019-03-31T03:14:38.050Z,12.63
2019-03-31T03:17:06.339Z,14.23
2019-03-31T03:19:34.582Z,14.33
2019-03-31T03:22:02.805Z,13.18
2019-03-31T03:24:31.048Z,14.30
2019-03-31T03:26:59.273Z,13.28
2019-03-31T03:29:27.528Z,13.90
2019-03-31T03:31:55.758Z,14.63
2019-03-31T03:34:23.996Z,13.20
2019-03-31T03:36:52.232Z,14.07
2019-03-31T03:39:20.490Z,12.85
2019-03-31T03:41:48.731Z,12.68
2019-03-31T03:44:16.958Z,13.10
2019-03-31T03:46:45.202Z,12.45
2019-03-31T03:49:13.631Z,12.68
2019-03-31T03:51:42.056Z,16.00
2019-03-31T03:54:10.301Z,15.55
2019-03-31T03:56:38.510Z,14.45
2019-03-31T03:59:09.866Z,15.85
2019-03-31T04:01:38.088Z,13.75
2019-03-31T04:04:06.317Z,14.75
2019-03-31T04:06:34.555Z,15.40
2019-03-31T04:09:04.151Z,15.10
2019-03-31T04:11:32.665Z,15.63
2019-03-31T04:14:00.923Z,15.05
2019-03-31T04:16:29.147Z,13.90
2019-03-31T04:18:57.515Z,13.75
2019-03-31T04:21:25.745Z,13.93
2019-03-31T04:23:54.018Z,13.22
2019-03-31T04:26:22.351Z,12.90
2019-03-31T04:28:50.655Z,13.03
2019-03-31T04:31:18.894Z,13.68
2019-03-31T04:33:52.588Z,13.35
2019-03-31T04:36:17.120Z,12.78
2019-03-31T04:38:45.407Z,13.03
2019-03-31T04:41:13.750Z,13.15
2019-03-31T04:43:42.004Z,12.82
2019-03-31T04:46:10.226Z,13.18
2019-03-31T04:48:38.465Z,14.53
2019-03-31T04:51:06.708Z,13.30
2019-03-31T04:53:34.950Z,13.50
2019-03-31T04:56:03.189Z,13.65
2019-03-31T04:58:31.431Z,13.03
2019-03-31T05:00:59.759Z,12.40
2019-03-31T05:03:27.986Z,12.25
2019-03-31T05:05:56.389Z,14.20
2019-03-31T05:08:25.578Z,13.08
2019-03-31T05:10:53.790Z,14.00
2019-03-31T05:13:22.016Z,14.40
2019-03-31T05:15:50.280Z,14.05
2019-03-31T05:18:18.521Z,13.93
2019-03-31T05:20:46.754Z,13.00
2019-03-31T05:23:14.993Z,13.28
2019-03-31T05:25:43.238Z,12.45
2019-03-31T05:28:11.482Z,13.05
2019-03-31T05:30:39.750Z,13.03
2019-03-31T05:33:07.972Z,14.45
2019-03-31T05:35:36.198Z,13.03
2019-03-31T05:38:04.452Z,13.70
2019-03-31T05:40:32.670Z,12.58
2019-03-31T05:43:00.894Z,11.93
2019-03-31T05:45:29.159Z,14.65
2019-03-31T05:47:57.382Z,13.15
2019-03-31T05:50:25.603Z,12.00
2019-03-31T05:52:54.215Z,13.32
2019-03-31T05:55:22.465Z,12.73
2019-03-31T05:57:50.684Z,13.30
2019-03-31T06:00:30.402Z,12.58
2019-03-31T06:02:58.648Z,13.25
2019-03-31T06:05:26.877Z,13.78
2019-03-31T06:07:55.127Z,13.90
2019-03-31T06:10:23.360Z,12.03
2019-03-31T06:12:51.651Z,13.70
2019-03-31T06:15:19.900Z,13.50
2019-03-31T06:17:48.147Z,14.68
2019-03-31T06:20:16.366Z,14.70
2019-03-31T06:22:44.631Z,14.93
2019-03-31T06:25:12.855Z,14.45
2019-03-31T06:27:41.066Z,14.07
2019-03-31T06:30:09.330Z,14.45
2019-03-31T06:32:37.557Z,14.78
2019-03-31T06:35:06.066Z,15.35
2019-03-31T06:37:34.317Z,15.30
2019-03-31T06:40:03.415Z,15.75
2019-03-31T06:42:31.652Z,16.05
2019-03-31T06:44:59.885Z,16.00
2019-03-31T06:47:28.126Z,14.83
2019-03-31T06:49:56.356Z,14.83
2019-03-31T06:52:24.570Z,14.65
2019-03-31T06:54:52.838Z,16.45
2019-03-31T06:57:21.070Z,14.87
2019-03-31T06:59:49.300Z,16.48
2019-03-31T07:02:17.554Z,15.68
2019-03-31T07:04:45.784Z,17.17
2019-03-31T07:07:14.078Z,16.37
2019-03-31T07:09:42.346Z,16.48
2019-03-31T07:12:10.595Z,16.77
2019-03-31T07:14:38.825Z,15.20
2019-03-31T07:17:07.056Z,14.40
2019-03-31T07:19:35.328Z,15.72
2019-03-31T07:22:03.570Z,14.73
2019-03-31T07:24:31.788Z,15.72
2019-03-31T07:27:00.045Z,14.73
2019-03-31T07:29:28.286Z,14.47
2019-03-31T07:31:56.510Z,14.93
2019-03-31T07:34:24.767Z,14.65
2019-03-31T07:36:53.002Z,15.70
2019-03-31T07:39:21.218Z,14.53
2019-03-31T07:41:49.646Z,15.72
2019-03-31T07:44:18.006Z,14.15
2019-03-31T07:46:46.331Z,13.85
2019-03-31T07:49:14.568Z,14.20
2019-03-31T07:51:42.792Z,14.10
2019-03-31T07:54:11.060Z,14.30
2019-03-31T07:56:39.282Z,15.28
2019-03-31T07:59:07.585Z,13.48
2019-03-31T08:01:35.852Z,13.55
2019-03-31T08:04:04.143Z,12.88
2019-03-31T08:06:32.392Z,13.30
2019-03-31T08:09:00.649Z,14.20
2019-03-31T08:11:28.878Z,14.07
2019-03-31T08:13:57.099Z,12.95
2019-03-31T08:16:25.367Z,12.03
2019-03-31T08:18:53.608Z,14.33
2019-03-31T08:21:21.836Z,12.98
2019-03-31T08:23:50.097Z,14.25
2019-03-31T08:26:18.333Z,14.03
2019-03-31T08:28:46.587Z,12.55
2019-03-31T08:31:14.823Z,13.25
2019-03-31T08:33:43.066Z,13.25
2019-03-31T08:36:11.339Z,13.55
2019-03-31T08:38:39.666Z,13.38
2019-03-31T08:41:07.907Z,12.65
2019-03-31T08:43:36.135Z,12.88
2019-03-31T08:46:04.392Z,13.35
2019-03-31T08:48:32.639Z,13.30
2019-03-31T08:51:00.866Z,13.75
2019-03-31T08:53:29.275Z,13.35
2019-03-31T08:55:57.516Z,14.18
2019-03-31T08:58:25.748Z,13.85
2019-03-31T09:00:55.633Z,13.90
2019-03-31T09:03:23.872Z,12.95
2019-03-31T09:06:01.754Z,12.80
2019-03-31T09:08:22.274Z,13.50
2019-03-31T09:10:50.530Z,14.07
2019-03-31T09:13:18.768Z,13.78
2019-03-31T09:15:47.019Z,13.88
2019-03-31T09:18:15.272Z,13.35
2019-03-31T09:20:43.512Z,12.53
2019-03-31T09:23:18.090Z,12.65
2019-03-31T09:25:47.761Z,12.85
2019-03-31T09:28:16.144Z,14.50
2019-03-31T09:30:44.416Z,13.10
2019-03-31T09:33:12.676Z,13.40
2019-03-31T09:35:40.931Z,13.78
2019-03-31T09:38:09.164Z,14.55
2019-03-31T09:40:37.426Z,14.38
2019-03-31T09:43:05.677Z,12.88
2019-03-31T09:45:33.902Z,13.50
2019-03-31T09:48:02.147Z,14.83
2019-03-31T09:50:30.413Z,13.70
2019-03-31T09:52:59.560Z,14.90
2019-03-31T09:55:27.774Z,14.33
2019-03-31T09:57:56.033Z,14.60
2019-03-31T10:00:42.433Z,15.10
2019-03-31T10:03:10.686Z,13.88
2019-03-31T10:05:38.947Z,14.90
2019-03-31T10:08:07.183Z,15.03
2019-03-31T10:10:35.440Z,14.30
2019-03-31T10:13:03.662Z,14.33
2019-03-31T10:15:31.922Z,15.50
2019-03-31T10:18:00.190Z,15.48
2019-03-31T10:20:31.233Z,14.30
2019-03-31T10:22:58.384Z,15.90
2019-03-31T10:25:26.636Z,16.87
2019-03-31T10:27:54.864Z,15.55
2019-03-31T10:30:36.788Z,16.60
2019-03-31T10:33:05.579Z,16.05
2019-03-31T10:35:33.802Z,14.70
2019-03-31T10:38:02.119Z,17.67
2019-03-31T10:40:30.365Z,16.45
2019-03-31T10:42:58.602Z,17.48
2019-03-31T10:45:26.832Z,16.75
2019-03-31T10:47:55.079Z,16.73
2019-03-31T10:50:23.310Z,14.83
2019-03-31T10:52:51.569Z,15.72
2019-03-31T10:55:19.801Z,15.98
2019-03-31T10:57:48.072Z,16.40
2019-03-31T11:00:19.601Z,14.25
2019-03-31T11:02:47.862Z,14.80
2019-03-31T11:05:16.080Z,14.60
2019-03-31T11:07:44.313Z,15.35
2019-03-31T11:10:12.569Z,15.30
2019-03-31T11:12:40.807Z,16.45
2019-03-31T11:15:09.063Z,15.58
2019-03-31T11:17:37.344Z,14.60
2019-03-31T11:20:07.178Z,14.53
2019-03-31T11:22:53.958Z,17.87
2019-03-31T11:25:26.105Z,16.10
2019-03-31T11:27:52.185Z,15.50
2019-03-31T11:30:20.412Z,15.53
2019-03-31T11:32:48.652Z,14.43
2019-03-31T11:35:16.898Z,13.98
2019-03-31T11:37:45.139Z,13.25
2019-03-31T11:40:13.456Z,11.12
2019-03-31T11:42:41.691Z,10.70
2019-03-31T11:45:09.999Z,12.50
2019-03-31T11:47:38.261Z,11.03
2019-03-31T11:50:06.860Z,13.83
2019-03-31T11:52:35.087Z,12.33
2019-03-31T11:55:03.814Z,10.23
2019-03-31T11:57:32.077Z,7.97
2019-03-31T12:00:00.412Z,10.32
2019-03-31T12:02:28.736Z,11.68
2019-03-31T12:04:56.982Z,11.55
2019-03-31T12:07:28.317Z,12.00
2019-03-31T12:09:55.192Z,10.78
2019-03-31T12:12:23.455Z,11.43
2019-03-31T12:15:00.291Z,12.50
2019-03-31T12:17:21.668Z,10.45
2019-03-31T12:19:49.897Z,9.48
2019-03-31T12:22:18.178Z,9.85
2019-03-31T12:24:46.391Z,9.88
2019-03-31T12:27:14.633Z,10.05
2019-03-31T12:29:42.896Z,8.30
2019-03-31T12:32:11.118Z,9.88
2019-03-31T12:34:39.340Z,8.90
2019-03-31T12:37:07.584Z,8.15
2019-03-31T12:39:35.844Z,7.75
2019-03-31T12:42:04.441Z,5.95
2019-03-31T12:44:32.659Z,5.65
2019-03-31T12:47:00.903Z,5.80
2019-03-31T12:49:29.130Z,6.05
2019-03-31T12:51:57.365Z,6.22
2019-03-31T12:54:25.609Z,6.12
2019-03-31T12:56:53.847Z,6.42
2019-03-31T12:59:22.097Z,6.25
2019-03-31T13:01:50.340Z,6.60
2019-03-31T13:04:18.582Z,6.20
2019-03-31T13:06:46.909Z,7.00
2019-03-31T13:09:15.127Z,6.55
2019-03-31T13:11:43.394Z,6.47
2019-03-31T13:14:11.615Z,6.72
2019-03-31T13:16:39.842Z,5.72
2019-03-31T13:19:08.054Z,5.92
2019-03-31T13:21:36.306Z,7.00
2019-03-31T13:24:04.523Z,7.05
2019-03-31T13:26:32.793Z,7.58
2019-03-31T13:29:01.014Z,6.30
2019-03-31T13:31:29.244Z,6.58
2019-03-31T13:33:57.880Z,6.05
2019-03-31T13:36:26.109Z,6.37
2019-03-31T13:38:54.322Z,6.92
2019-03-31T13:41:22.564Z,6.42
2019-03-31T13:43:50.839Z,7.85
2019-03-31T13:46:19.076Z,5.20
2019-03-31T13:48:47.332Z,5.05
2019-03-31T13:51:15.563Z,4.85
2019-03-31T13:53:43.789Z,4.58
2019-03-31T13:56:12.470Z,4.28
2019-03-31T13:58:41.424Z,4.47
2019-03-31T14:01:10.328Z,4.60
2019-03-31T14:03:38.582Z,4.75
2019-03-31T14:06:06.798Z,3.90
2019-03-31T14:08:35.049Z,4.33
2019-03-31T14:11:03.293Z,4.45
2019-03-31T14:13:31.535Z,4.05
2019-03-31T14:15:59.799Z,5.03
2019-03-31T14:18:28.014Z,4.80
2019-03-31T14:20:56.270Z,5.17
2019-03-31T14:23:24.495Z,4.65
2019-03-31T14:25:52.734Z,4.45
2019-03-31T14:28:20.954Z,5.33
2019-03-31T14:30:49.204Z,4.50
2019-03-31T14:33:17.432Z,4.12
2019-03-31T14:35:45.694Z,4.50
2019-03-31T14:38:13.918Z,4.45
2019-03-31T14:40:42.154Z,4.55
2019-03-31T14:43:10.458Z,5.00
2019-03-31T14:45:38.678Z,4.25
2019-03-31T14:48:06.946Z,4.05
2019-03-31T14:50:36.609Z,3.87
2019-03-31T14:53:04.918Z,4.50
2019-03-31T14:55:33.132Z,4.30
2019-03-31T14:58:01.378Z,4.37
2019-03-31T15:00:29.604Z,3.75
2019-03-31T15:02:57.848Z,4.05
2019-03-31T15:05:26.094Z,3.70
2019-03-31T15:07:54.316Z,3.10
2019-03-31T15:10:22.550Z,3.80
2019-03-31T15:12:50.775Z,2.70
2019-03-31T15:15:19.017Z,3.35
2019-03-31T15:17:47.231Z,3.60
2019-03-31T15:20:16.944Z,3.15
2019-03-31T15:22:45.162Z,3.25
2019-03-31T15:25:13.401Z,3.12
2019-03-31T15:27:41.656Z,4.15
2019-03-31T15:30:09.909Z,3.05
2019-03-31T15:32:38.126Z,3.15
2019-03-31T15:35:07.157Z,3.27
2019-03-31T15:37:35.380Z,3.30
2019-03-31T15:40:05.998Z,3.00
2019-03-31T15:42:34.319Z,3.00
2019-03-31T15:45:02.687Z,2.77
2019-03-31T15:47:30.935Z,3.42
2019-03-31T15:49:59.199Z,3.20
2019-03-31T15:52:27.445Z,3.37
2019-03-31T15:54:55.748Z,2.83
2019-03-31T15:57:23.971Z,2.70
2019-03-31T15:59:52.867Z,3.67
2019-03-31T16:02:22.853Z,3.67
2019-03-31T16:04:51.116Z,3.45
2019-03-31T16:07:19.340Z,3.35
2019-03-31T16:09:47.579Z,4.20
2019-03-31T16:12:15.804Z,3.58
2019-03-31T16:14:44.050Z,2.98
2019-03-31T16:17:12.277Z,3.58
2019-03-31T16:19:40.530Z,3.60
2019-03-31T16:22:08.776Z,3.50
2019-03-31T16:24:41.069Z,3.30
2019-03-31T16:27:09.330Z,3.90
2019-03-31T16:29:37.580Z,3.87
2019-03-31T16:32:05.830Z,4.00
2019-03-31T16:34:34.246Z,4.28
2019-03-31T16:37:02.502Z,3.50
2019-03-31T16:39:37.415Z,3.75
2019-03-31T16:42:00.714Z,2.90
2019-03-31T16:44:28.934Z,3.15
2019-03-31T16:46:57.151Z,4.28
2019-03-31T16:49:25.396Z,4.60
2019-03-31T16:51:53.655Z,3.72
2019-03-31T16:54:21.911Z,3.55
2019-03-31T16:56:50.122Z,3.47
2019-03-31T16:59:18.398Z,4.05
2019-03-31T17:01:46.630Z,3.80
2019-03-31T17:04:14.842Z,3.83
2019-03-31T17:06:43.092Z,3.98
2019-03-31T17:09:11.334Z,4.17
2019-03-31T17:11:39.562Z,5.10
2019-03-31T17:14:07.810Z,4.83
2019-03-31T17:16:36.057Z,4.28
2019-03-31T17:19:04.283Z,4.15
2019-03-31T17:21:32.522Z,4.95
2019-03-31T17:24:00.776Z,5.87
2019-03-31T17:26:29.003Z,4.22
2019-03-31T17:28:57.247Z,4.72
2019-03-31T17:31:25.505Z,5.37
2019-03-31T17:33:53.748Z,4.80
2019-03-31T17:36:21.954Z,5.12
2019-03-31T17:38:50.204Z,3.92
2019-03-31T17:41:18.449Z,4.53
2019-03-31T17:43:51.598Z,4.92
2019-03-31T17:46:19.855Z,4.42
2019-03-31T17:48:48.087Z,4.87
2019-03-31T17:51:16.332Z,4.45
2019-03-31T17:53:44.579Z,4.53
2019-03-31T17:56:12.808Z,5.45
2019-03-31T17:58:41.058Z,4.80
2019-03-31T18:01:09.370Z,4.12
2019-03-31T18:03:38.532Z,4.60
2019-03-31T18:06:06.899Z,4.55
2019-03-31T18:08:35.160Z,5.17
2019-03-31T18:11:03.393Z,4.42
2019-03-31T18:13:31.664Z,5.10
2019-03-31T18:15:59.906Z,4.55
2019-03-31T18:18:28.141Z,5.22
2019-03-31T18:21:15.806Z,4.50
2019-03-31T18:23:44.032Z,4.60
2019-03-31T18:26:12.273Z,5.40
2019-03-31T18:28:43.651Z,4.40
2019-03-31T18:31:10.491Z,4.35
2019-03-31T18:33:38.713Z,4.95
2019-03-31T18:36:06.935Z,3.95
2019-03-31T18:38:35.200Z,5.08
2019-03-31T18:41:03.827Z,4.25
2019-03-31T18:43:33.175Z,4.08
2019-03-31T18:46:01.495Z,5.08
2019-03-31T18:48:29.732Z,4.90
2019-03-31T18:50:57.992Z,4.97
2019-03-31T18:53:44.440Z,4.30
2019-03-31T18:56:30.993Z,5.22
2019-03-31T18:59:17.376Z,5.00
2019-03-31T19:01:55.723Z,5.70
2019-03-31T19:04:34.380Z,6.85
2019-03-31T19:07:16.248Z,4.95
2019-03-31T19:09:46.104Z,4.92
2019-03-31T19:12:31.354Z,4.67
2019-03-31T19:15:07.117Z,4.85
2019-03-31T19:17:36.990Z,5.15
2019-03-31T19:20:09.598Z,6.00
2019-03-31T19:22:39.515Z,6.50
2019-03-31T19:25:21.437Z,7.33
2019-03-31T19:28:07.513Z,7.22
2019-03-31T19:30:40.590Z,7.78
2019-03-31T19:33:10.569Z,8.33
2019-03-31T19:35:49.443Z,8.28
2019-03-31T19:38:22.319Z,7.97
2019-03-31T19:41:03.268Z,9.63
2019-03-31T19:43:23.837Z,9.00
2019-03-31T19:46:05.542Z,9.78
2019-03-31T19:51:21.983Z,11.60
2019-03-31T19:54:00.900Z,11.70
2019-03-31T19:56:33.450Z,12.73
2019-03-31T19:59:12.480Z,12.30
2019-03-31T20:01:42.356Z,12.70
2019-03-31T20:04:28.728Z,12.35
2019-03-31T20:06:58.612Z,12.33
2019-03-31T20:09:34.032Z,13.18
2019-03-31T20:12:09.824Z,12.63
2019-03-31T20:14:45.859Z,12.13
2019-03-31T20:17:18.514Z,12.60
2019-03-31T20:19:57.330Z,14.68
2019-03-31T20:22:30.382Z,13.30
2019-03-31T20:25:00.381Z,13.65
2019-03-31T20:27:35.998Z,14.58
2019-03-31T20:30:41.825Z,13.83
2019-03-31T20:33:14.684Z,14.45
2019-03-31T20:35:47.396Z,14.18
2019-03-31T20:38:35.646Z,13.08
2019-03-31T20:41:05.515Z,14.80
2019-03-31T20:43:41.172Z,15.55
2019-03-31T20:46:09.394Z,15.03
2019-03-31T20:48:37.664Z,16.35
2019-03-31T20:51:05.921Z,16.75
2019-03-31T20:53:34.143Z,16.35
2019-03-31T20:56:02.402Z,16.90
2019-03-31T20:58:30.641Z,17.73
2019-03-31T21:00:58.887Z,18.02
2019-03-31T21:03:27.140Z,17.37
2019-03-31T21:05:55.376Z,19.07
2019-03-31T21:08:23.709Z,18.35
2019-03-31T21:10:51.949Z,19.70
2019-03-31T21:13:20.198Z,21.35
2019-03-31T21:15:48.433Z,20.45
2019-03-31T21:18:16.676Z,22.35
2019-03-31T21:20:44.928Z,20.77
2019-03-31T21:23:13.181Z,22.17
2019-03-31T21:25:41.403Z,23.52
2019-03-31T21:28:09.661Z,22.45
2019-03-31T21:30:38.435Z,22.82
2019-03-31T21:33:06.668Z,24.30
2019-03-31T21:35:34.979Z,22.05
2019-03-31T21:38:03.518Z,22.75
2019-03-31T21:40:31.740Z,23.05
2019-03-31T21:42:59.980Z,21.87
2019-03-31T21:45:28.252Z,23.57
2019-03-31T21:47:56.489Z,23.12
2019-03-31T21:50:24.745Z,24.35
2019-03-31T21:52:52.962Z,25.25
2019-03-31T21:55:21.209Z,22.70
2019-03-31T21:57:49.463Z,24.85
2019-03-31T22:00:18.380Z,25.12
2019-03-31T22:02:46.595Z,23.75
2019-03-31T22:05:14.870Z,25.85
2019-03-31T22:07:43.088Z,25.15
2019-03-31T22:10:11.586Z,24.90
2019-03-31T22:12:39.846Z,25.12
2019-03-31T22:15:08.080Z,25.82
2019-03-31T22:17:36.325Z,27.75
2019-03-31T22:20:06.524Z,26.57
2019-03-31T22:22:34.761Z,26.85
2019-03-31T22:25:03.064Z,25.77
2019-03-31T22:27:31.325Z,26.62
2019-03-31T22:29:59.558Z,26.40
2019-03-31T22:32:27.790Z,27.58
2019-03-31T22:34:56.046Z,28.95
2019-03-31T22:37:24.284Z,30.90
2019-03-31T22:39:52.563Z,31.45
2019-03-31T22:42:20.802Z,32.38
2019-03-31T22:44:49.054Z,31.52
2019-03-31T22:47:17.309Z,32.08
2019-03-31T22:49:45.550Z,31.12
2019-03-31T22:52:13.796Z,31.87
2019-03-31T22:54:42.027Z,31.73
2019-03-31T22:57:10.250Z,32.03
2019-03-31T22:59:38.630Z,34.20
2019-03-31T23:02:06.870Z,32.78
2019-03-31T23:04:35.104Z,31.23
2019-03-31T23:07:03.348Z,33.08
2019-03-31T23:09:34.281Z,32.17
2019-03-31T23:12:01.556Z,34.10
2019-03-31T23:14:29.817Z,33.65
2019-03-31T23:16:58.085Z,33.95
2019-03-31T23:19:26.311Z,31.35
2019-03-31T23:21:54.546Z,35.40
2019-03-31T23:24:22.833Z,35.50
2019-03-31T23:26:51.083Z,34.30
2019-03-31T23:29:19.328Z,37.25
2019-03-31T23:31:47.572Z,35.25
2019-03-31T23:34:15.819Z,33.38
2019-03-31T23:36:44.101Z,36.23
2019-03-31T23:39:12.499Z,35.83
2019-03-31T23:41:40.723Z,36.17
2019-03-31T23:44:08.968Z,37.48
2019-03-31T23:46:37.234Z,36.70
2019-03-31T23:49:05.473Z,36.95
2019-03-31T23:51:33.750Z,35.17
2019-03-31T23:54:02.020Z,35.68
2019-03-31T23:56:30.238Z,35.00
2019-03-31T23:58:58.489Z,33.40
